createdAt,value
2022-11-16T00:00:10.681Z,-0.20
2022-11-16T00:05:12.852Z,-0.20
2022-11-16T00:10:15.306Z,-0.19
2022-11-16T00:15:17.414Z,-0.16
2022-11-16T00:20:19.730Z,-0.19
2022-11-16T00:25:22.359Z,-0.21
2022-11-16T00:30:24.562Z,-0.24
2022-11-16T00:35:27.175Z,-0.20
2022-11-16T00:40:29.581Z,-0.25
2022-11-16T00:45:31.810Z,-0.41
2022-11-16T00:50:33.955Z,-0.29
2022-11-16T00:55:37.687Z,-0.32
2022-11-16T01:00:41.095Z,-0.37
2022-11-16T01:05:43.552Z,-0.38
2022-11-16T01:10:45.624Z,-0.40
2022-11-16T01:15:48.498Z,-0.37
2022-11-16T01:20:52.236Z,-0.44
2022-11-16T01:26:01.915Z,-0.47
2022-11-16T01:31:05.885Z,-0.55
2022-11-16T01:36:17.162Z,-0.58
2022-11-16T01:41:24.484Z,-0.64
2022-11-16T01:46:31.774Z,-0.83
2022-11-16T01:51:35.307Z,-0.92
2022-11-16T01:56:39.792Z,-0.95
2022-11-16T02:01:48.021Z,-0.98
2022-11-16T02:07:02.484Z,-0.88
2022-11-16T02:12:23.368Z,-0.83
2022-11-16T02:17:47.358Z,-0.82
2022-11-16T02:23:11.290Z,-0.92
2022-11-16T02:28:27.824Z,-0.91
2022-11-16T02:33:39.116Z,-0.98
2022-11-16T02:38:47.959Z,-1.06
2022-11-16T02:44:00.960Z,-1.06
2022-11-16T02:49:09.472Z,-1.15
2022-11-16T02:54:16.693Z,-1.22
2022-11-16T02:59:26.101Z,-1.26
2022-11-16T03:04:37.969Z,-1.30
2022-11-16T03:09:42.278Z,-1.39
2022-11-16T03:14:59.068Z,-1.51
2022-11-16T03:20:10.261Z,-1.69
2022-11-16T03:25:17.693Z,-1.90
2022-11-16T03:30:24.244Z,-2.25
2022-11-16T03:35:41.753Z,-2.37
2022-11-16T03:40:46.176Z,-2.39
2022-11-16T03:45:49.483Z,-2.50
2022-11-16T03:50:52.534Z,-2.55
2022-11-16T03:55:55.731Z,-2.60
2022-11-16T04:00:58.791Z,-2.64
2022-11-16T04:06:21.375Z,-2.68
2022-11-16T04:11:42.761Z,-2.71
2022-11-16T04:17:03.459Z,-2.78
2022-11-16T04:22:32.250Z,-2.76
2022-11-16T04:27:52.820Z,-2.87
2022-11-16T04:33:13.497Z,-2.90
2022-11-16T04:38:15.606Z,-2.89
2022-11-16T04:43:18.006Z,-2.91
2022-11-16T04:48:21.489Z,-2.91
2022-11-16T04:53:28.119Z,-2.95
2022-11-16T04:58:38.302Z,-2.95
2022-11-16T05:03:40.636Z,-3.00
2022-11-16T05:08:42.941Z,-3.02
2022-11-16T05:13:46.094Z,-3.02
2022-11-16T05:19:08.929Z,-2.99
2022-11-16T05:24:30.016Z,-2.94
2022-11-16T05:29:33.234Z,-2.87
2022-11-16T05:34:36.029Z,-2.73
2022-11-16T05:39:39.170Z,-2.58
2022-11-16T05:44:41.372Z,-2.46
2022-11-16T05:49:44.941Z,-2.36
2022-11-16T05:54:48.603Z,-2.29
2022-11-16T05:59:51.142Z,-1.78
2022-11-16T06:04:53.593Z,-1.30
2022-11-16T06:09:56.628Z,-1.28
2022-11-16T06:14:59.812Z,-1.29
2022-11-16T06:20:02.986Z,-1.33
2022-11-16T06:25:09.004Z,-1.25
2022-11-16T06:30:15.420Z,-1.20
2022-11-16T06:35:17.908Z,-0.55
2022-11-16T06:40:20.100Z,1.30
2022-11-16T06:45:22.464Z,3.37
2022-11-16T06:50:29.301Z,4.71
2022-11-16T06:55:32.085Z,5.94
2022-11-16T07:00:34.697Z,7.48
2022-11-16T07:05:44.440Z,8.88
2022-11-16T07:10:49.721Z,10.19
2022-11-16T07:15:52.619Z,11.31
2022-11-16T07:20:54.817Z,12.14
2022-11-16T07:26:01.939Z,13.05
2022-11-16T07:31:13.852Z,13.71
2022-11-16T07:36:17.019Z,14.48
2022-11-16T07:41:19.942Z,14.60
2022-11-16T07:46:48.565Z,14.98
2022-11-16T07:51:51.995Z,15.64
2022-11-16T07:57:12.086Z,16.54
2022-11-16T08:02:16.692Z,17.34
2022-11-16T08:07:19.520Z,18.38
2022-11-16T08:12:27.528Z,18.73
2022-11-16T08:17:30.839Z,18.71
2022-11-16T08:22:33.893Z,18.62
2022-11-16T08:27:36.932Z,18.66
2022-11-16T08:32:39.446Z,18.99
2022-11-16T08:37:41.790Z,19.56
2022-11-16T08:42:44.644Z,19.64
2022-11-16T08:47:47.859Z,20.21
2022-11-16T08:52:50.059Z,20.21
2022-11-16T08:57:53.439Z,20.73
2022-11-16T09:02:56.861Z,20.92
2022-11-16T09:07:59.007Z,21.39
2022-11-16T09:13:01.209Z,21.06
2022-11-16T09:18:03.485Z,20.95
2022-11-16T09:23:05.560Z,20.85
2022-11-16T09:28:08.656Z,21.01
2022-11-16T09:33:11.115Z,21.47
2022-11-16T09:38:19.083Z,21.82
2022-11-16T09:43:46.849Z,23.07
2022-11-16T09:48:50.993Z,23.38
2022-11-16T09:53:55.481Z,23.21
2022-11-16T09:59:15.000Z,23.70
2022-11-16T10:04:19.944Z,23.47
2022-11-16T10:09:22.515Z,23.31
2022-11-16T10:14:48.851Z,23.48
2022-11-16T10:19:56.078Z,22.25
2022-11-16T10:24:59.964Z,22.12
2022-11-16T10:30:14.209Z,22.28
2022-11-16T10:35:22.762Z,22.06
2022-11-16T10:40:36.047Z,22.29
2022-11-16T10:46:09.581Z,22.44
2022-11-16T10:51:11.788Z,21.63
2022-11-16T10:56:21.114Z,20.21
2022-11-16T11:01:41.879Z,17.43
2022-11-16T11:06:45.287Z,13.88
2022-11-16T11:12:20.691Z,11.76
2022-11-16T11:17:22.844Z,9.83
2022-11-16T11:22:25.022Z,10.00
2022-11-16T11:27:32.647Z,8.87
2022-11-16T11:32:40.183Z,8.08
2022-11-16T11:37:43.691Z,7.43
2022-11-16T11:42:59.077Z,7.03
2022-11-16T11:48:37.020Z,6.48
2022-11-16T11:53:55.204Z,5.99
2022-11-16T11:58:58.082Z,5.51
2022-11-16T12:04:21.403Z,5.43
2022-11-16T12:09:32.528Z,5.58
2022-11-16T12:15:25.390Z,5.88
2022-11-16T12:20:42.011Z,7.02
2022-11-16T12:26:12.346Z,8.60
2022-11-16T12:31:27.543Z,9.52
2022-11-16T12:36:39.250Z,9.62
2022-11-16T12:42:18.530Z,9.01
2022-11-16T12:47:23.744Z,7.71
2022-11-16T12:52:34.771Z,6.53
2022-11-16T12:57:56.347Z,5.61
2022-11-16T13:03:10.606Z,5.28
2022-11-16T13:08:29.188Z,4.71
2022-11-16T13:13:36.961Z,3.72
2022-11-16T13:18:42.723Z,3.08
2022-11-16T13:23:55.512Z,2.57
2022-11-16T13:29:13.179Z,2.08
2022-11-16T13:34:24.204Z,1.45
2022-11-16T13:40:01.564Z,1.38
2022-11-16T13:45:18.976Z,0.99
2022-11-16T13:50:25.021Z,0.78
2022-11-16T13:55:33.258Z,0.62
2022-11-16T14:00:38.908Z,0.44
2022-11-16T14:05:42.485Z,0.30
2022-11-16T14:10:47.558Z,0.15
2022-11-16T14:16:15.576Z,0.22
2022-11-16T14:21:20.593Z,0.05
2022-11-16T14:26:53.420Z,-0.02
2022-11-16T14:31:57.854Z,-0.17
2022-11-16T14:37:00.742Z,-0.25
2022-11-16T14:42:15.264Z,-0.29
2022-11-16T14:47:28.981Z,-0.35
2022-11-16T14:52:44.002Z,-0.42
2022-11-16T14:57:46.743Z,-0.61
2022-11-16T15:02:53.639Z,-0.61
2022-11-16T15:08:00.029Z,-0.71
2022-11-16T15:13:04.075Z,-0.72
2022-11-16T15:18:12.290Z,-0.66
2022-11-16T15:23:15.535Z,-0.69
2022-11-16T15:28:19.807Z,-0.65
2022-11-16T15:33:29.222Z,-0.61
2022-11-16T15:38:32.972Z,-0.70
2022-11-16T15:43:55.293Z,-0.72
2022-11-16T15:49:03.373Z,-0.80
2022-11-16T15:54:25.934Z,-0.69
2022-11-16T15:59:32.566Z,-0.67
2022-11-16T16:04:34.642Z,-0.64
2022-11-16T16:09:41.498Z,-0.57
2022-11-16T16:14:44.209Z,-0.57
2022-11-16T16:20:01.020Z,-0.44
2022-11-16T16:25:05.771Z,-0.46
2022-11-16T16:30:08.772Z,-0.36
2022-11-16T16:35:19.096Z,-0.24
2022-11-16T16:40:21.297Z,-0.21
2022-11-16T16:45:37.356Z,-0.07
2022-11-16T16:50:40.402Z,-0.21
2022-11-16T16:55:43.576Z,-0.02
2022-11-16T17:00:45.913Z,0.07
2022-11-16T17:05:48.154Z,0.13
2022-11-16T17:10:50.658Z,0.19
2022-11-16T17:15:52.817Z,0.25
2022-11-16T17:20:55.094Z,0.32
2022-11-16T17:25:57.462Z,0.39
2022-11-16T17:31:04.839Z,0.46
2022-11-16T17:36:12.634Z,0.42
2022-11-16T17:41:18.072Z,0.33
2022-11-16T17:46:22.643Z,0.20
2022-11-16T17:51:25.974Z,0.05
2022-11-16T17:56:28.935Z,0.04
2022-11-16T18:01:34.261Z,-0.01
2022-11-16T18:06:36.790Z,0.00
2022-11-16T18:11:39.850Z,0.00
2022-11-16T18:16:43.552Z,0.01
2022-11-16T18:21:46.804Z,0.00
2022-11-16T18:26:49.070Z,-0.05
2022-11-16T18:31:51.080Z,-0.01
2022-11-16T18:36:53.623Z,-0.04
2022-11-16T18:41:56.108Z,-0.07
2022-11-16T18:46:58.429Z,-0.13
2022-11-16T18:52:00.649Z,-0.22
2022-11-16T18:57:02.860Z,-0.24
2022-11-16T19:02:05.051Z,-0.35
2022-11-16T19:07:07.888Z,-0.40
2022-11-16T19:12:10.100Z,-0.38
2022-11-16T19:17:12.815Z,-0.39
2022-11-16T19:22:14.959Z,-0.35
2022-11-16T19:27:17.085Z,-0.35
2022-11-16T19:32:19.189Z,-0.36
2022-11-16T19:37:21.432Z,-0.31
2022-11-16T19:42:23.638Z,-0.24
2022-11-16T19:47:26.873Z,-0.09
2022-11-16T19:52:29.105Z,0.05
2022-11-16T19:57:31.284Z,0.18
2022-11-16T20:02:33.463Z,0.29
2022-11-16T20:07:38.948Z,0.36
2022-11-16T20:12:41.371Z,0.44
2022-11-16T20:17:43.498Z,0.47
2022-11-16T20:22:48.123Z,0.57
2022-11-16T20:27:50.207Z,0.59
2022-11-16T20:32:52.337Z,0.63
2022-11-16T20:37:54.482Z,0.71
2022-11-16T20:42:59.185Z,0.77
2022-11-16T20:48:01.344Z,0.81
2022-11-16T20:53:03.480Z,0.83
2022-11-16T20:58:05.524Z,0.86
2022-11-16T21:03:07.594Z,0.84
2022-11-16T21:08:10.754Z,0.83
2022-11-16T21:13:33.939Z,0.86
2022-11-16T21:18:36.247Z,0.84
2022-11-16T21:23:40.926Z,0.88
2022-11-16T21:28:46.095Z,0.85
2022-11-16T21:33:48.636Z,0.88
2022-11-16T21:38:51.532Z,0.89
2022-11-16T21:43:53.775Z,0.81
2022-11-16T21:48:56.625Z,0.87
2022-11-16T21:53:59.028Z,0.93
2022-11-16T21:59:01.129Z,0.92
2022-11-16T22:04:22.066Z,0.93
2022-11-16T22:09:24.069Z,0.95
2022-11-16T22:14:26.102Z,0.95
2022-11-16T22:19:28.150Z,0.97
2022-11-16T22:24:30.409Z,0.98
2022-11-16T22:29:32.595Z,0.87
2022-11-16T22:34:34.820Z,1.02
2022-11-16T22:39:37.879Z,0.91
2022-11-16T22:44:40.183Z,1.00
2022-11-16T22:49:42.304Z,0.99
2022-11-16T22:54:44.499Z,0.98
2022-11-16T22:59:46.673Z,0.95
2022-11-16T23:04:48.719Z,0.92
2022-11-16T23:09:50.846Z,0.90
2022-11-16T23:15:11.640Z,0.89
2022-11-16T23:20:32.454Z,0.90
2022-11-16T23:25:53.464Z,0.92
2022-11-16T23:30:55.528Z,0.97
2022-11-16T23:35:57.551Z,0.89
2022-11-16T23:41:19.553Z,0.84
2022-11-16T23:46:21.763Z,0.84
2022-11-16T23:51:24.868Z,0.68
2022-11-16T23:56:27.974Z,0.69
